Najaf, Iraq
Current Conditions -  °F | °C
As of 1:55 AM on Tuesday 25 Nov 2014 (Local Time) from KQTZ Reporting Station
Rain Showers Rain Showers  
Wind Chill: 57°   Ceiling: 7000
Heat Index: 57°   Visibility: 5mi
Dew Point: 48°   Wind: 3mph
Humidity: 72%   Direction: 50°NE
Pressure: 29.91"   Gusts: NA
Location:  31.98°N, 44.32°E
Report Text: KQTZ 242255Z 05003KT 8000 -SHRA FEW030 BKN070 BKN100 14/09 A2991 RMK SLP128 PCPN VRY LGT WND/ALSTG/SLP ESTMD
Loading
Personal Weather Stations






























Interactive Weather Map New forecast layout! Learn more

10-Day Weather Forecast

Advertisements
Track Severe Weather on mobile